Time;durP1;ratioP1;P1;durP2;ratioP2;P2;SDS_P1;SDS_P2;PMS_P1;PMS_P2;Temp;Humidity;BMP_temperature;BMP_pressure;BME280_temperature;BME280_humidity;BME280_pressure;Samples;Min_cycle;Max_cycle;Signal;HPM_P1;HPM_P2
2021/03/22 00:01:02;;;;;;;;;;;8.00;79.40;;;;;;4376084;32;20427;-74
2021/03/22 00:03:31;;;;;;;;;;;7.90;79.40;;;;;;4375687;32;36280;-74
2021/03/22 00:06:04;;;;;;;;;;;7.90;79.40;;;;;;4363450;32;19992;-74
2021/03/22 00:08:37;;;;;;;;;;;7.90;79.50;;;;;;4374971;32;36748;-74
2021/03/22 00:11:22;;;;;;;;;;;7.90;79.50;;;;;;4375537;32;20024;-74
2021/03/22 00:13:49;;;;;;;;;;;7.90;79.50;;;;;;4374364;32;41508;-74
2021/03/22 00:16:22;;;;;;;;;;;8.00;79.50;;;;;;4362999;32;20035;-74
2021/03/22 00:18:56;;;;;;;;;;;7.90;79.60;;;;;;4375853;32;20027;-74
2021/03/22 00:21:26;;;;;;;;;;;7.90;79.60;;;;;;4374557;32;43651;-74
2021/03/22 00:23:59;;;;;;;;;;;7.90;79.60;;;;;;4376737;32;20368;-74
2021/03/22 00:26:40;;;;;;;;;;;7.90;79.70;;;;;;4374612;32;38641;-74
2021/03/22 00:29:12;;;;;;;;;;;7.90;79.80;;;;;;4374571;32;44415;-74
2021/03/22 00:31:39;;;;;;;;;;;7.80;79.80;;;;;;4374560;32;42361;-74
2021/03/22 00:34:11;;;;;;;;;;;7.80;79.90;;;;;;4375463;32;20036;-74
2021/03/22 00:36:49;;;;;;;;;;;7.80;80.00;;;;;;4375859;32;20004;-74
2021/03/22 00:39:24;;;;;;;;;;;7.80;80.00;;;;;;4376754;32;20013;-74
2021/03/22 00:41:53;;;;;;;;;;;7.80;80.10;;;;;;4374270;32;43825;-74
2021/03/22 00:44:26;;;;;;;;;;;7.80;80.10;;;;;;4375524;32;20052;-74
2021/03/22 00:46:55;;;;;;;;;;;7.80;80.10;;;;;;4376671;32;20009;-74
2021/03/22 00:49:25;;;;;;;;;;;7.80;80.10;;;;;;4374838;32;34061;-74
2021/03/22 00:52:00;;;;;;;;;;;7.80;80.20;;;;;;4375288;32;41776;-74
2021/03/22 00:54:40;;;;;;;;;;;7.80;80.30;;;;;;4373792;32;43367;-74
2021/03/22 00:57:08;;;;;;;;;;;7.80;80.20;;;;;;4374442;32;35536;-74
2021/03/22 00:59:43;;;;;;;;;;;7.70;80.30;;;;;;4361982;32;33147;-74
2021/03/22 01:02:15;;;;;;;;;;;7.80;80.40;;;;;;4373842;32;44684;-74
2021/03/22 01:04:47;;;;;;;;;;;7.70;80.40;;;;;;4361416;32;41059;-74
2021/03/22 01:07:23;;;;;;;;;;;7.80;80.50;;;;;;4361052;32;44563;-74
2021/03/22 01:10:01;;;;;;;;;;;7.80;80.40;;;;;;4375600;32;20005;-74
2021/03/22 01:12:41;;;;;;;;;;;7.80;80.40;;;;;;4375408;32;20425;-74
2021/03/22 01:15:12;;;;;;;;;;;7.80;80.50;;;;;;4362871;32;20019;-74
2021/03/22 01:17:46;;;;;;;;;;;7.70;80.50;;;;;;4375429;32;20044;-74
2021/03/22 01:20:24;;;;;;;;;;;7.70;80.60;;;;;;4375312;32;20437;-74
2021/03/22 01:22:53;;;;;;;;;;;7.70;80.70;;;;;;4375672;32;20071;-74
2021/03/22 01:25:23;;;;;;;;;;;7.70;80.70;;;;;;4373638;32;41159;-74
2021/03/22 01:27:55;;;;;;;;;;;7.70;80.80;;;;;;4375072;32;44566;-74
2021/03/22 01:30:29;;;;;;;;;;;7.70;80.90;;;;;;4373338;32;43658;-74
2021/03/22 01:33:07;;;;;;;;;;;7.70;81.00;;;;;;4375039;32;19997;-74
2021/03/22 01:35:39;;;;;;;;;;;7.70;81.00;;;;;;4375008;32;39992;-74
2021/03/22 01:38:12;;;;;;;;;;;7.70;81.10;;;;;;4375231;32;20360;-74
2021/03/22 01:40:48;;;;;;;;;;;7.60;81.00;;;;;;4374032;32;43507;-74
2021/03/22 01:43:35;;;;;;;;;;;7.60;81.10;;;;;;4375934;32;20066;-74
2021/03/22 01:46:07;;;;;;;;;;;7.60;81.20;;;;;;4374645;32;43257;-74
2021/03/22 01:48:38;;;;;;;;;;;7.60;81.30;;;;;;4361323;32;45319;-74
2021/03/22 01:51:10;;;;;;;;;;;7.50;81.40;;;;;;4362663;32;20506;-74
2021/03/22 01:53:42;;;;;;;;;;;7.50;81.50;;;;;;4373596;32;43461;-74
2021/03/22 01:56:15;;;;;;;;;;;7.50;81.60;;;;;;4374345;32;32944;-74
2021/03/22 01:58:54;;;;;;;;;;;7.50;81.60;;;;;;4374906;32;20008;-74
2021/03/22 02:01:29;;;;;;;;;;;7.50;81.70;;;;;;4362705;32;20039;-74
2021/03/22 02:04:05;;;;;;;;;;;7.40;81.80;;;;;;4362367;32;20373;-74
2021/03/22 02:06:37;;;;;;;;;;;7.40;81.90;;;;;;4374547;32;43634;-74
2021/03/22 02:09:09;;;;;;;;;;;7.40;82.20;;;;;;4362483;32;20394;-74
2021/03/22 02:11:39;;;;;;;;;;;7.40;82.20;;;;;;4375057;32;20057;-74
2021/03/22 02:14:14;;;;;;;;;;;7.40;82.20;;;;;;4362250;32;20018;-74
2021/03/22 02:17:11;;;;;;;;;;;7.40;82.20;;;;;;4374945;32;20023;-74
2021/03/22 02:19:53;;;;;;;;;;;7.40;82.30;;;;;;4376433;32;44035;-74
2021/03/22 02:22:38;;;;;;;;;;;7.30;82.30;;;;;;4364369;32;22183;-74
2021/03/22 02:25:19;;;;;;;;;;;7.40;82.40;;;;;;4377407;32;20016;-74
2021/03/22 02:27:58;;;;;;;;;;;7.40;82.30;;;;;;4378729;32;20028;-74
2021/03/22 02:30:33;;;;;;;;;;;7.40;82.30;;;;;;4378234;32;20079;-74
2021/03/22 02:33:09;;;;;;;;;;;7.40;82.30;;;;;;4365044;32;20072;-74
2021/03/22 02:35:54;;;;;;;;;;;7.40;82.30;;;;;;4376621;32;20008;-74
2021/03/22 02:38:49;;;;;;;;;;;7.40;82.30;;;;;;4377471;32;20438;-74
2021/03/22 02:41:28;;;;;;;;;;;7.30;82.30;;;;;;4377073;32;20070;-74
2021/03/22 02:44:03;;;;;;;;;;;7.30;82.50;;;;;;4364548;32;20040;-74
2021/03/22 02:46:43;;;;;;;;;;;7.30;82.70;;;;;;4377807;32;20072;-74
2021/03/22 02:49:17;;;;;;;;;;;7.30;82.70;;;;;;4377226;32;20057;-74
2021/03/22 02:52:08;;;;;;;;;;;7.30;82.60;;;;;;4377056;32;20064;-74
2021/03/22 02:54:53;;;;;;;;;;;7.30;82.70;;;;;;4377966;32;20039;-74
2021/03/22 02:57:44;;;;;;;;;;;7.30;82.60;;;;;;4377045;32;20120;-74
2021/03/22 03:00:31;;;;;;;;;;;7.40;82.70;;;;;;4376750;32;20406;-74
2021/03/22 03:03:13;;;;;;;;;;;7.30;82.60;;;;;;4375936;32;20090;-74
2021/03/22 03:05:55;;;;;;;;;;;7.30;82.70;;;;;;4376758;32;20027;-74
2021/03/22 03:08:34;;;;;;;;;;;7.30;82.80;;;;;;4376657;32;20001;-74
2021/03/22 03:11:13;;;;;;;;;;;7.30;82.90;;;;;;4376678;32;20016;-74
2021/03/22 03:14:00;;;;;;;;;;;7.30;82.80;;;;;;4376761;32;20030;-74
2021/03/22 03:16:32;;;;;;;;;;;7.20;82.90;;;;;;4364195;32;20040;-74
2021/03/22 03:19:06;;;;;;;;;;;7.30;82.90;;;;;;4376548;32;20004;-74
2021/03/22 03:21:41;;;;;;;;;;;7.30;82.80;;;;;;4364813;32;20076;-74
2021/03/22 03:24:16;;;;;;;;;;;7.20;82.70;;;;;;4376545;32;19997;-74
2021/03/22 03:26:53;;;;;;;;;;;7.20;82.80;;;;;;4377842;32;20011;-74
2021/03/22 03:29:28;;;;;;;;;;;7.20;82.80;;;;;;4363913;32;20048;-74
2021/03/22 03:32:08;;;;;;;;;;;7.20;82.90;;;;;;4364457;32;20054;-74
2021/03/22 03:34:43;;;;;;;;;;;7.20;82.80;;;;;;4364070;32;20056;-74
2021/03/22 03:37:18;;;;;;;;;;;7.20;82.70;;;;;;4377690;32;20413;-74
2021/03/22 03:39:56;;;;;;;;;;;7.20;82.80;;;;;;4376225;32;20020;-74
2021/03/22 03:42:34;;;;;;;;;;;7.20;82.80;;;;;;4376376;32;20063;-74
2021/03/22 03:45:12;;;;;;;;;;;7.20;82.70;;;;;;4364166;32;19997;-74
2021/03/22 03:47:42;;;;;;;;;;;7.20;82.60;;;;;;4377241;32;20008;-74
2021/03/22 03:50:31;;;;;;;;;;;7.20;82.60;;;;;;4363701;32;20049;-74
2021/03/22 03:53:06;;;;;;;;;;;7.20;82.60;;;;;;4376464;32;20103;-74
2021/03/22 03:55:40;;;;;;;;;;;7.20;82.50;;;;;;4376319;32;20020;-74
2021/03/22 03:58:17;;;;;;;;;;;7.10;82.50;;;;;;4376053;32;19992;-74
2021/03/22 04:00:52;;;;;;;;;;;7.10;82.60;;;;;;4375648;32;20019;-74
2021/03/22 04:03:28;;;;;;;;;;;7.10;82.70;;;;;;4375765;32;20070;-74
2021/03/22 04:06:06;;;;;;;;;;;7.10;82.80;;;;;;4363720;32;20018;-74
2021/03/22 04:08:49;;;;;;;;;;;7.10;82.70;;;;;;4376911;32;20012;-74
2021/03/22 04:11:37;;;;;;;;;;;7.10;82.70;;;;;;4375632;32;20349;-74
2021/03/22 04:14:15;;;;;;;;;;;7.10;82.70;;;;;;4375821;32;20012;-74
2021/03/22 04:16:47;;;;;;;;;;;7.10;82.70;;;;;;4363535;32;20027;-74
2021/03/22 04:19:29;;;;;;;;;;;7.00;82.70;;;;;;4376758;32;20064;-74
2021/03/22 04:22:12;;;;;;;;;;;7.10;82.80;;;;;;4375305;32;20060;-74
2021/03/22 04:24:52;;;;;;;;;;;7.00;82.80;;;;;;4375870;32;20377;-74
2021/03/22 04:27:27;;;;;;;;;;;7.00;82.80;;;;;;4376003;32;20079;-74
2021/03/22 04:30:08;;;;;;;;;;;7.00;83.00;;;;;;4376902;32;20008;-74
2021/03/22 04:32:49;;;;;;;;;;;6.90;83.10;;;;;;4375766;32;20411;-74
2021/03/22 04:35:41;;;;;;;;;;;6.90;83.10;;;;;;4377078;32;20373;-74
2021/03/22 04:38:29;;;;;;;;;;;7.00;83.30;;;;;;4363188;32;19993;-74
2021/03/22 04:40:58;;;;;;;;;;;7.00;83.20;;;;;;4375156;32;40575;-74
2021/03/22 04:43:30;;;;;;;;;;;7.00;83.30;;;;;;4374189;32;36833;-74
2021/03/22 04:46:07;;;;;;;;;;;7.00;83.20;;;;;;4362968;32;19993;-74
2021/03/22 04:49:00;;;;;;;;;;;7.00;83.40;;;;;;4375739;32;20000;-74
2021/03/22 04:51:27;;;;;;;;;;;7.00;83.40;;;;;;4374348;32;42890;-74
2021/03/22 04:53:54;;;;;;;;;;;7.00;83.40;;;;;;4374503;32;36894;-74
2021/03/22 04:56:30;;;;;;;;;;;7.00;83.40;;;;;;4375039;32;20004;-74
2021/03/22 04:59:05;;;;;;;;;;;7.00;83.40;;;;;;4375111;32;40732;-74
2021/03/22 05:01:35;;;;;;;;;;;7.00;83.40;;;;;;4373601;32;45394;-74
2021/03/22 05:04:11;;;;;;;;;;;7.00;83.60;;;;;;4375698;32;34644;-74
2021/03/22 05:06:49;;;;;;;;;;;7.00;83.60;;;;;;4373664;32;45851;-74
2021/03/22 05:09:15;;;;;;;;;;;7.00;83.70;;;;;;4374626;32;30906;-74
2021/03/22 05:11:45;;;;;;;;;;;7.00;83.70;;;;;;4375060;32;20063;-74
2021/03/22 05:14:28;;;;;;;;;;;7.00;83.70;;;;;;4375436;32;20042;-74
2021/03/22 05:16:58;;;;;;;;;;;7.00;83.70;;;;;;4374092;32;44820;-74
2021/03/22 05:19:31;;;;;;;;;;;7.00;83.70;;;;;;4375294;32;38868;-74
2021/03/22 05:22:03;;;;;;;;;;;7.10;83.80;;;;;;4375278;32;31100;-74
2021/03/22 05:24:33;;;;;;;;;;;7.00;83.80;;;;;;4374474;32;20004;-74
2021/03/22 05:27:03;;;;;;;;;;;7.10;83.80;;;;;;4362355;32;20445;-74
2021/03/22 05:29:38;;;;;;;;;;;7.00;83.70;;;;;;4375156;32;32767;-74
2021/03/22 05:32:25;;;;;;;;;;;7.00;83.80;;;;;;4374989;32;45001;-74
2021/03/22 05:35:00;;;;;;;;;;;7.10;83.80;;;;;;4375213;32;20330;-74
2021/03/22 05:37:30;;;;;;;;;;;7.10;83.80;;;;;;4374978;32;44529;-74
2021/03/22 05:40:01;;;;;;;;;;;7.00;83.70;;;;;;4374735;32;32846;-74
2021/03/22 05:42:50;;;;;;;;;;;7.10;83.90;;;;;;4375521;32;26113;-74
2021/03/22 05:45:35;;;;;;;;;;;7.00;83.80;;;;;;4374685;32;20016;-74
2021/03/22 05:48:05;;;;;;;;;;;7.10;84.00;;;;;;4373802;32;44936;-74
2021/03/22 05:50:41;;;;;;;;;;;7.10;84.00;;;;;;4375088;32;20027;-74
2021/03/22 05:53:15;;;;;;;;;;;7.10;84.00;;;;;;4375551;32;20012;-74
2021/03/22 05:55:52;;;;;;;;;;;7.10;84.00;;;;;;4379292;32;20050;-74
2021/03/22 05:58:33;;;;;;;;;;;7.10;84.00;;;;;;4377775;32;20060;-74
2021/03/22 06:01:09;;;;;;;;;;;7.00;84.00;;;;;;4365579;32;20008;-74
2021/03/22 06:03:57;;;;;;;;;;;7.00;84.30;;;;;;4377431;32;20068;-74
2021/03/22 06:06:38;;;;;;;;;;;7.00;84.30;;;;;;4377643;32;20034;-74
2021/03/22 06:09:20;;;;;;;;;;;6.90;84.30;;;;;;4364098;32;36786;-74
2021/03/22 06:12:28;;;;;;;;;;;6.90;84.40;;;;;;4376871;32;24219;-74
2021/03/22 06:15:07;;;;;;;;;;;6.90;84.70;;;;;;4378513;32;20142;-73
2021/03/22 06:17:36;;;;;;;;;;;6.90;84.80;;;;;;4377148;32;20012;-74
2021/03/22 06:20:26;;;;;;;;;;;6.90;85.00;;;;;;4364167;32;37617;-74
2021/03/22 06:23:03;;;;;;;;;;;6.90;84.90;;;;;;4376520;32;38808;-74
2021/03/22 06:25:40;;;;;;;;;;;6.90;85.00;;;;;;4365494;32;20060;-74
2021/03/22 06:28:15;;;;;;;;;;;6.90;85.00;;;;;;4377072;32;21151;-74
2021/03/22 06:30:56;;;;;;;;;;;6.80;85.10;;;;;;4376570;32;28856;-74
2021/03/22 06:33:26;;;;;;;;;;;6.80;85.30;;;;;;4377107;32;20016;-74
2021/03/22 06:35:54;;;;;;;;;;;6.80;85.40;;;;;;4377601;32;29891;-74
2021/03/22 06:38:20;;;;;;;;;;;6.80;85.50;;;;;;4377202;32;40470;-74
2021/03/22 06:40:52;;;;;;;;;;;6.70;85.60;;;;;;4376071;32;33473;-74
2021/03/22 06:43:25;;;;;;;;;;;6.70;85.80;;;;;;4363555;32;45345;-74
2021/03/22 06:46:15;;;;;;;;;;;6.70;86.00;;;;;;4378297;32;20005;-74
2021/03/22 06:48:55;;;;;;;;;;;6.70;86.00;;;;;;4364440;32;19993;-74
2021/03/22 06:51:25;;;;;;;;;;;6.70;86.10;;;;;;4377013;32;38829;-74
2021/03/22 06:54:03;;;;;;;;;;;6.70;86.30;;;;;;4377665;32;24155;-74
2021/03/22 06:56:42;;;;;;;;;;;6.70;86.20;;;;;;4376893;32;44439;-74
2021/03/22 06:59:19;;;;;;;;;;;6.70;86.40;;;;;;4376617;32;43630;-74
2021/03/22 07:01:47;;;;;;;;;;;6.80;86.50;;;;;;4362734;32;44894;-74
2021/03/22 07:04:37;;;;;;;;;;;6.80;86.50;;;;;;4376610;32;20016;-74
2021/03/22 07:07:13;;;;;;;;;;;6.80;86.50;;;;;;4376037;32;30291;-74
2021/03/22 07:09:57;;;;;;;;;;;6.80;86.60;;;;;;4377016;32;20009;-74
2021/03/22 07:12:33;;;;;;;;;;;6.80;86.50;;;;;;4363975;32;20038;-74
2021/03/22 07:15:18;;;;;;;;;;;6.80;86.60;;;;;;4376804;32;20068;-74
2021/03/22 07:18:05;;;;;;;;;;;6.80;86.80;;;;;;4376521;32;20477;-74
2021/03/22 07:21:00;;;;;;;;;;;6.80;86.80;;;;;;4363932;32;42064;-74
2021/03/22 07:23:33;;;;;;;;;;;6.80;86.90;;;;;;4375888;32;35781;-74
2021/03/22 07:26:22;;;;;;;;;;;6.80;87.10;;;;;;4375407;32;44712;-74
2021/03/22 07:29:07;;;;;;;;;;;6.70;87.00;;;;;;4375528;32;44498;-74
2021/03/22 07:31:39;;;;;;;;;;;6.70;87.20;;;;;;4375781;32;44086;-73
2021/03/22 07:34:28;;;;;;;;;;;6.80;87.60;;;;;;4376568;32;20044;-73
2021/03/22 07:37:17;;;;;;;;;;;6.70;87.70;;;;;;4363678;32;20418;-74
2021/03/22 07:39:59;;;;;;;;;;;6.80;87.70;;;;;;4376534;32;20013;-73
2021/03/22 07:42:45;;;;;;;;;;;6.80;87.60;;;;;;4376335;32;20371;-73
2021/03/22 07:45:24;;;;;;;;;;;6.80;87.90;;;;;;4364209;32;20000;-73
2021/03/22 07:47:56;;;;;;;;;;;6.80;87.90;;;;;;4376347;32;20052;-73
2021/03/22 07:50:45;;;;;;;;;;;6.90;88.00;;;;;;4377239;32;20012;-73
2021/03/22 07:53:19;;;;;;;;;;;6.90;88.00;;;;;;4377089;32;20008;-74
2021/03/22 07:56:12;;;;;;;;;;;6.90;88.00;;;;;;4377109;32;20056;-73
2021/03/22 07:58:54;;;;;;;;;;;6.90;87.90;;;;;;4363543;32;20457;-73
2021/03/22 08:01:42;;;;;;;;;;;6.90;87.90;;;;;;4375906;32;20000;-74
2021/03/22 08:04:47;;;;;;;;;;;6.90;87.90;;;;;;4363068;32;20074;-73
2021/03/22 08:07:32;;;;;;;;;;;7.00;88.10;;;;;;4315828;33;20024;-74
2021/03/22 08:10:19;;;;;;;;;;;7.00;88.00;;;;;;4383587;32;20071;-74
2021/03/22 08:13:17;;;;;;;;;;;7.00;88.00;;;;;;4345658;32;20007;-74
2021/03/22 08:15:50;;;;;;;;;;;7.00;87.80;;;;;;4375152;32;20481;-74
2021/03/22 08:18:30;;;;;;;;;;;7.00;87.70;;;;;;4375896;32;20085;-73
2021/03/22 08:21:20;;;;;;;;;;;7.00;87.70;;;;;;4376076;32;20063;-73
2021/03/22 08:24:06;;;;;;;;;;;7.00;87.70;;;;;;4375522;32;44960;-73
2021/03/22 08:26:36;;;;;;;;;;;7.10;87.70;;;;;;4374077;32;42536;-74
2021/03/22 08:29:17;;;;;;;;;;;7.00;87.60;;;;;;4362900;32;20061;-74
2021/03/22 08:31:53;;;;;;;;;;;7.00;87.60;;;;;;4363393;32;20007;-73
2021/03/22 08:34:29;;;;;;;;;;;7.10;87.70;;;;;;4375689;32;20068;-74
2021/03/22 08:37:28;;;;;;;;;;;7.10;87.70;;;;;;4376742;32;20368;-73
2021/03/22 08:40:00;;;;;;;;;;;7.10;87.70;;;;;;4333495;32;43148;-74
2021/03/22 08:42:31;;;;;;;;;;;7.10;87.60;;;;;;4361933;32;43934;-73
2021/03/22 08:45:04;;;;;;;;;;;7.10;87.60;;;;;;4363043;32;20001;-73
2021/03/22 08:47:36;;;;;;;;;;;7.10;87.60;;;;;;4362988;32;20017;-73
2021/03/22 08:50:18;;;;;;;;;;;7.10;87.50;;;;;;4375236;32;20393;-73
2021/03/22 08:52:59;;;;;;;;;;;7.10;87.50;;;;;;4375852;32;20443;-73
2021/03/22 08:55:51;;;;;;;;;;;7.10;87.50;;;;;;4376706;32;20401;-73
2021/03/22 08:58:18;;;;;;;;;;;7.10;87.40;;;;;;4374605;32;39214;-73
2021/03/22 09:00:55;;;;;;;;;;;7.10;87.30;;;;;;4362751;32;20004;-73
2021/03/22 09:03:35;;;;;;;;;;;7.10;87.30;;;;;;4362571;32;20004;-73
2021/03/22 09:06:18;;;;;;;;;;;7.20;87.40;;;;;;4362946;32;20012;-73
2021/03/22 09:08:57;;;;;;;;;;;7.20;87.40;;;;;;4375274;32;19993;-73
2021/03/22 09:11:34;;;;;;;;;;;7.20;87.30;;;;;;4376409;32;20013;-73
2021/03/22 09:14:21;;;;;;;;;;;7.20;87.30;;;;;;4376278;32;20060;-73
2021/03/22 09:16:57;;;;;;;;;;;7.20;87.30;;;;;;4374054;32;43582;-73
2021/03/22 09:19:36;;;;;;;;;;;7.20;87.30;;;;;;4361635;32;38950;-73
2021/03/22 09:22:19;;;;;;;;;;;7.20;87.20;;;;;;4373700;32;43392;-73
2021/03/22 09:24:50;;;;;;;;;;;7.20;87.20;;;;;;4374994;32;43839;-73
2021/03/22 09:27:30;;;;;;;;;;;7.20;87.20;;;;;;4376039;32;20022;-73
2021/03/22 09:29:59;;;;;;;;;;;7.20;87.10;;;;;;4378658;32;36988;-73
2021/03/22 09:32:34;;;;;;;;;;;7.20;87.10;;;;;;4378805;32;20012;-74
2021/03/22 09:35:23;;;;;;;;;;;7.20;87.00;;;;;;4378100;32;20026;-73
2021/03/22 09:37:59;;;;;;;;;;;7.30;87.00;;;;;;4376801;32;44946;-74
2021/03/22 09:40:38;;;;;;;;;;;7.30;87.00;;;;;;4365737;32;20010;-73
2021/03/22 09:43:16;;;;;;;;;;;7.30;86.90;;;;;;4364616;32;31218;-73
2021/03/22 09:45:56;;;;;;;;;;;7.30;86.90;;;;;;4365082;32;20007;-73
2021/03/22 09:48:29;;;;;;;;;;;7.30;86.90;;;;;;4364452;32;35295;-73
2021/03/22 09:51:08;;;;;;;;;;;7.30;86.80;;;;;;4378115;32;20020;-73
2021/03/22 09:54:13;;;;;;;;;;;7.20;86.70;;;;;;4377938;32;20031;-74
2021/03/22 09:56:41;;;;;;;;;;;7.30;86.80;;;;;;4365673;32;33628;-73
2021/03/22 09:59:14;;;;;;;;;;;7.30;86.80;;;;;;4363726;32;43852;-74
2021/03/22 10:01:43;;;;;;;;;;;7.30;86.80;;;;;;4377803;32;20014;-74
2021/03/22 10:04:28;;;;;;;;;;;7.30;86.70;;;;;;4365424;32;20012;-73
2021/03/22 10:07:09;;;;;;;;;;;7.30;86.80;;;;;;4377797;32;20398;-73
2021/03/22 10:09:51;;;;;;;;;;;7.20;86.80;;;;;;4365363;32;20337;-73
2021/03/22 10:12:33;;;;;;;;;;;7.20;87.00;;;;;;4377496;32;20015;-74
2021/03/22 10:15:14;;;;;;;;;;;7.20;87.10;;;;;;4378769;32;20022;-74
2021/03/22 10:17:49;;;;;;;;;;;7.20;87.00;;;;;;4378548;32;20004;-74
2021/03/22 10:20:31;;;;;;;;;;;7.20;87.10;;;;;;4375788;32;46543;-74
2021/03/22 10:23:24;;;;;;;;;;;7.20;86.90;;;;;;4376552;32;41253;-74
2021/03/22 10:26:08;;;;;;;;;;;7.20;86.90;;;;;;4375799;32;44333;-74
2021/03/22 10:28:35;;;;;;;;;;;7.20;86.90;;;;;;4376080;32;43675;-74
2021/03/22 10:31:09;;;;;;;;;;;7.20;86.90;;;;;;4376890;32;44548;-74
2021/03/22 10:33:45;;;;;;;;;;;7.30;86.80;;;;;;4377956;32;20001;-73
2021/03/22 10:36:24;;;;;;;;;;;7.30;86.70;;;;;;4364936;32;20464;-74
2021/03/22 10:39:04;;;;;;;;;;;7.30;86.60;;;;;;4376620;32;20053;-74
2021/03/22 10:41:41;;;;;;;;;;;7.30;86.60;;;;;;4377355;32;20064;-74
2021/03/22 10:44:32;;;;;;;;;;;7.30;86.60;;;;;;4377302;32;20138;-74
2021/03/22 10:47:15;;;;;;;;;;;7.30;86.60;;;;;;4364806;32;20022;-73
2021/03/22 10:49:49;;;;;;;;;;;7.30;86.70;;;;;;4364728;32;20014;-73
2021/03/22 10:52:22;;;;;;;;;;;7.30;86.80;;;;;;4377151;32;20431;-73
2021/03/22 10:55:00;;;;;;;;;;;7.30;86.90;;;;;;4376531;32;20009;-74
2021/03/22 10:57:36;;;;;;;;;;;7.20;86.90;;;;;;4376970;32;20043;-73
2021/03/22 11:00:24;;;;;;;;;;;7.20;87.00;;;;;;4378068;32;20009;-74
2021/03/22 11:03:02;;;;;;;;;;;7.20;87.00;;;;;;4363530;32;21565;-73
2021/03/22 11:05:42;;;;;;;;;;;7.20;86.90;;;;;;4378030;32;20012;-73
2021/03/22 11:08:32;;;;;;;;;;;7.20;86.80;;;;;;4378145;32;20052;-73
2021/03/22 11:11:08;;;;;;;;;;;7.20;86.90;;;;;;4376170;32;20011;-73
2021/03/22 11:13:44;;;;;;;;;;;7.20;87.00;;;;;;4377164;32;27585;-73
2021/03/22 11:16:29;;;;;;;;;;;7.20;87.10;;;;;;4377855;32;20035;-74
2021/03/22 11:19:16;;;;;;;;;;;7.20;87.10;;;;;;4375111;32;41826;-73
2021/03/22 11:21:49;;;;;;;;;;;7.20;87.10;;;;;;4363275;32;31214;-73
2021/03/22 11:24:41;;;;;;;;;;;7.20;87.10;;;;;;4364588;32;20330;-73
2021/03/22 11:27:16;;;;;;;;;;;7.20;87.10;;;;;;4375208;32;38356;-73
2021/03/22 11:29:57;;;;;;;;;;;7.20;87.00;;;;;;4375790;32;35569;-73
2021/03/22 11:32:47;;;;;;;;;;;7.20;86.90;;;;;;4375258;32;43623;-73
2021/03/22 11:35:33;;;;;;;;;;;7.20;87.00;;;;;;4371677;32;20004;-73
2021/03/22 11:38:17;;;;;;;;;;;7.20;87.00;;;;;;4375739;32;29005;-73
2021/03/22 11:40:52;;;;;;;;;;;7.20;87.00;;;;;;4375936;32;20941;-73
2021/03/22 11:43:27;;;;;;;;;;;7.20;86.90;;;;;;4376566;32;33385;-74
2021/03/22 11:45:54;;;;;;;;;;;7.20;86.90;;;;;;4374710;32;38530;-73
2021/03/22 11:48:24;;;;;;;;;;;7.30;86.80;;;;;;4375061;32;44522;-73
2021/03/22 11:51:05;;;;;;;;;;;7.30;86.50;;;;;;4363175;32;20015;-73
2021/03/22 11:53:52;;;;;;;;;;;7.30;86.40;;;;;;4377068;32;20042;-73
2021/03/22 11:56:30;;;;;;;;;;;7.30;86.20;;;;;;4364631;32;20009;-73
2021/03/22 11:59:26;;;;;;;;;;;7.30;86.10;;;;;;4363684;32;20051;-73
2021/03/22 12:02:00;;;;;;;;;;;7.30;86.00;;;;;;4359363;32;29639;-74
2021/03/22 12:04:34;;;;;;;;;;;7.30;85.90;;;;;;4376962;32;20047;-73
2021/03/22 12:07:16;;;;;;;;;;;7.40;85.90;;;;;;4377084;32;20004;-73
2021/03/22 12:09:51;;;;;;;;;;;7.50;85.90;;;;;;4376018;32;20026;-73
2021/03/22 12:12:28;;;;;;;;;;;7.40;85.80;;;;;;4363750;32;20067;-74
2021/03/22 12:15:01;;;;;;;;;;;7.40;85.70;;;;;;4376191;32;20060;-74
2021/03/22 12:17:44;;;;;;;;;;;7.50;86.40;;;;;;4375849;32;20075;-74
2021/03/22 12:20:26;;;;;;;;;;;7.50;85.50;;;;;;4375798;32;20027;-73
2021/03/22 12:22:58;;;;;;;;;;;7.40;85.60;;;;;;4375022;32;29766;-74
2021/03/22 12:25:36;;;;;;;;;;;7.50;85.60;;;;;;4374858;32;35892;-73
2021/03/22 12:28:09;;;;;;;;;;;7.50;85.60;;;;;;4375088;32;23142;-73
2021/03/22 12:30:44;;;;;;;;;;;7.50;85.40;;;;;;4375186;32;20406;-73
2021/03/22 12:33:32;;;;;;;;;;;7.50;85.30;;;;;;4375788;32;34540;-73
2021/03/22 12:36:08;;;;;;;;;;;7.50;85.20;;;;;;4374651;32;39233;-73
2021/03/22 12:38:43;;;;;;;;;;;7.50;85.20;;;;;;4374049;32;42820;-73
2021/03/22 12:41:22;;;;;;;;;;;7.50;85.10;;;;;;4374460;32;44904;-73
2021/03/22 12:44:01;;;;;;;;;;;7.50;84.80;;;;;;4374538;32;37496;-73
2021/03/22 12:46:37;;;;;;;;;;;7.50;84.70;;;;;;4361909;32;41053;-74
2021/03/22 12:49:12;;;;;;;;;;;7.60;84.70;;;;;;4375377;32;19997;-73
2021/03/22 12:51:44;;;;;;;;;;;7.60;84.60;;;;;;4373676;32;45108;-73
2021/03/22 12:54:16;;;;;;;;;;;7.60;84.50;;;;;;4374887;32;20004;-74
2021/03/22 12:56:51;;;;;;;;;;;7.60;84.60;;;;;;4375498;32;20020;-73
2021/03/22 12:59:30;;;;;;;;;;;7.60;84.50;;;;;;4362015;32;41016;-73
2021/03/22 13:02:00;;;;;;;;;;;7.60;84.30;;;;;;4373639;32;40327;-73
2021/03/22 13:04:29;;;;;;;;;;;7.60;83.80;;;;;;4362242;32;32725;-74
2021/03/22 13:06:56;;;;;;;;;;;7.60;84.00;;;;;;4375149;32;45090;-73
2021/03/22 13:09:25;;;;;;;;;;;7.60;84.20;;;;;;4374165;32;43404;-73
2021/03/22 13:12:01;;;;;;;;;;;7.60;84.10;;;;;;4376433;32;20052;-73
2021/03/22 13:14:35;;;;;;;;;;;7.60;84.10;;;;;;4376485;32;20075;-74
2021/03/22 13:17:08;;;;;;;;;;;7.70;84.00;;;;;;4373505;32;43599;-74
2021/03/22 13:19:38;;;;;;;;;;;7.70;83.90;;;;;;4375120;32;44495;-73
2021/03/22 13:22:17;;;;;;;;;;;7.70;83.70;;;;;;4375154;32;43037;-74
2021/03/22 13:24:56;;;;;;;;;;;7.70;83.60;;;;;;4373949;32;43331;-73
2021/03/22 13:27:26;;;;;;;;;;;7.80;83.70;;;;;;4373690;32;38347;-73
2021/03/22 13:29:56;;;;;;;;;;;7.70;83.50;;;;;;4373859;32;44025;-74
2021/03/22 13:32:25;;;;;;;;;;;7.70;83.80;;;;;;4375445;32;20012;-74
2021/03/22 13:35:00;;;;;;;;;;;7.70;83.60;;;;;;4374633;32;20044;-74
2021/03/22 13:37:30;;;;;;;;;;;7.70;83.60;;;;;;4374921;32;44197;-74
2021/03/22 13:40:03;;;;;;;;;;;7.80;83.70;;;;;;4374714;32;20013;-73
2021/03/22 13:42:34;;;;;;;;;;;7.80;83.40;;;;;;4375440;32;20042;-74
2021/03/22 13:45:07;;;;;;;;;;;7.80;83.30;;;;;;4375742;32;20076;-74
2021/03/22 13:47:39;;;;;;;;;;;7.80;83.40;;;;;;4376141;32;20012;-74
2021/03/22 13:50:15;;;;;;;;;;;7.80;83.40;;;;;;4376202;32;20047;-73
2021/03/22 13:52:48;;;;;;;;;;;7.80;83.30;;;;;;4373803;32;43361;-74
2021/03/22 13:55:21;;;;;;;;;;;7.80;83.00;;;;;;4374751;32;20014;-73
2021/03/22 13:57:53;;;;;;;;;;;7.90;83.00;;;;;;4374344;32;20000;-74
2021/03/22 14:00:26;;;;;;;;;;;7.90;83.00;;;;;;4376179;32;20148;-74
2021/03/22 14:03:00;;;;;;;;;;;7.90;83.10;;;;;;4375476;32;20016;-73
2021/03/22 14:05:33;;;;;;;;;;;7.90;82.90;;;;;;4374830;32;42923;-74
2021/03/22 14:08:04;;;;;;;;;;;7.90;82.80;;;;;;4374176;32;36304;-74
2021/03/22 14:10:36;;;;;;;;;;;7.90;82.80;;;;;;4374483;32;20079;-74
2021/03/22 14:13:11;;;;;;;;;;;7.90;82.70;;;;;;4374791;32;41251;-74
2021/03/22 14:15:45;;;;;;;;;;;7.90;82.60;;;;;;4377218;32;38358;-74
2021/03/22 14:18:26;;;;;;;;;;;7.90;82.50;;;;;;4378110;32;20027;-74
2021/03/22 14:21:03;;;;;;;;;;;7.90;82.60;;;;;;4378562;32;20009;-74
2021/03/22 14:23:34;;;;;;;;;;;7.90;82.60;;;;;;4377654;32;20121;-74
2021/03/22 14:26:17;;;;;;;;;;;8.00;82.60;;;;;;4365342;32;44963;-73
2021/03/22 14:28:48;;;;;;;;;;;8.00;82.60;;;;;;4377279;32;43647;-73
2021/03/22 14:31:24;;;;;;;;;;;8.00;82.60;;;;;;4375912;32;45142;-73
2021/03/22 14:33:59;;;;;;;;;;;8.00;82.60;;;;;;4376199;32;44692;-73
2021/03/22 14:36:32;;;;;;;;;;;8.00;82.50;;;;;;4377233;32;44705;-74
2021/03/22 14:39:11;;;;;;;;;;;8.00;82.60;;;;;;4363809;32;41488;-74
2021/03/22 14:41:43;;;;;;;;;;;8.00;82.70;;;;;;4377718;32;31394;-73
2021/03/22 14:44:20;;;;;;;;;;;8.00;82.70;;;;;;4364337;32;20425;-73
2021/03/22 14:46:56;;;;;;;;;;;7.90;82.80;;;;;;4375906;32;44671;-73
2021/03/22 14:49:32;;;;;;;;;;;7.90;82.90;;;;;;4376896;32;43366;-74
2021/03/22 14:52:01;;;;;;;;;;;8.00;82.90;;;;;;4362904;32;45570;-73
2021/03/22 14:54:38;;;;;;;;;;;8.00;82.80;;;;;;4377462;32;28730;-73
2021/03/22 14:57:14;;;;;;;;;;;8.00;82.70;;;;;;4376116;32;38120;-73
2021/03/22 14:59:46;;;;;;;;;;;8.00;82.90;;;;;;4362989;32;43389;-73
2021/03/22 15:02:19;;;;;;;;;;;8.00;82.90;;;;;;4376311;32;20830;-74
2021/03/22 15:04:54;;;;;;;;;;;8.00;82.90;;;;;;4375848;32;31972;-73
2021/03/22 15:07:31;;;;;;;;;;;8.00;82.90;;;;;;4364047;32;20090;-73
2021/03/22 15:10:03;;;;;;;;;;;8.00;83.00;;;;;;4376562;32;20024;-74
2021/03/22 15:12:40;;;;;;;;;;;8.00;82.90;;;;;;4375426;32;36658;-73
2021/03/22 15:15:13;;;;;;;;;;;8.00;83.00;;;;;;4364293;32;19992;-73
2021/03/22 15:17:43;;;;;;;;;;;8.00;83.00;;;;;;4375943;32;33215;-74
2021/03/22 15:20:23;;;;;;;;;;;8.00;83.00;;;;;;4377908;32;20012;-74
2021/03/22 15:22:56;;;;;;;;;;;8.00;82.90;;;;;;4376070;32;29509;-74
2021/03/22 15:25:34;;;;;;;;;;;8.00;83.10;;;;;;4376332;32;20008;-74
2021/03/22 15:28:09;;;;;;;;;;;8.00;82.80;;;;;;4364293;32;20056;-74
2021/03/22 15:30:42;;;;;;;;;;;8.10;82.70;;;;;;4363901;32;19996;-74